Airport View

Enter AWOS ICAO identifier for current METAR.

ex. KFNL

KOJA 210035Z AUTO 16016G22KT 10SM SCT013 SCT018 BKN095 25/22 A2993 RMK AO2

21 Sep 2019 00:58

Frequency: 118.575

Phone: 580-772-7020

Other Area AWOS: KCLK - KJWG - KCSM - KRQO

TAF KCSM 202327Z 2100/2124 17011KT P6SM FEW025 OVC050 FM211200 18018G24KT P6SM BKN015 BKN045 FM212100 19016KT P6SM SCT035 BKN050 PROB30 2121/2124 2SM TSRA OVC030CB